Milan, IL

7:23 AM CST on January 31, 2015 (GMT -0600)
KILMILAN2 | Change Station
CLOSE
Current Station
Personal Weather Station
Location: Milan, IL
Elevation: 653 ft
Nearby Weather Stations
Active Advisory: Winter Storm Warning

Elev 653 ft 41.42 °N, 90.54 °W | Updated 3 minutes ago

Partly Cloudy
Partly Cloudy
30.7 °F
Feels Like 31 °F
N
1.0
Wind Variable Wind from East
Gusts 2.0 mph

Today
High -- | Low -- °F
--% Chance of Precip.
Yesterday
High -- | Low -- °F
Precip. -- in
7:14 AM 5:17 PM
Waxing Gibbous, 89% visible
Pressure 30.26 in
Visibility 10.0 miles
Clouds Scattered Clouds 5500 ft
Windchill 31 °F
Dew Point 22 °F
Humidity 69%
Rainfall 0.00 in
Snow Depth Not available.
UV 0 out of 12
Pollen .10 out of 12
Air Quality Not available.
Flu Activity Not available.
METAR KMLI 311252Z 24006KT 10SM SCT055 M02/M07 A3023 RMK AO2 SLP245 T10171067 $

More Conditions Fewer Conditions

Pressure 30.26 in
Visibility 10.0 miles
Clouds Scattered Clouds 5500 ft
Windchill 31 °F
Dew Point 22 °F
Humidity 69%
Rainfall 0.00 in
Snow Depth Not available.
UV 0 out of 12
Pollen .10 out of 12
Air Quality Not available.
Flu Activity Not available.
METAR KMLI 311252Z 24006KT 10SM SCT055 M02/M07 A3023 RMK AO2 SLP245 T10171067 $

More Conditions Fewer Conditions

10-Day Weather Forecast

Almanac

Astronomy

Jan. 31, 2015 Rise Set
Actual Time
Civil Twilight
Nautical Twilight
Astronomical Twilight
Moon
Length of Visible Light
Length of Day
Tomorrow will be .
, % of the Moon is Illuminated

Today's Extremes

State Highs State Lows

Community

WunderPhotos

Upload Photos

1,792,048 photos uploaded!

WunderBlogs® & News

Nearby

Air Quality

  Air Quality AQ Index Pollutant
Not available.

Snow Depth

Station Depth Elevation

Earthquake Activity

City Distance Mag. Time & Date
Minimum magnitude displayed is 2.5.

Coastal Water Temperatures

Place Temperature

Nearby Weather Stations